sensor_id;sensor_type;location;lat;lon;timestamp;pressure;altitude;pressure_sealevel;temperature;humidity
4398;BME280;2213;49.720;7.296;2023-04-19T00:01:00;98815.81;;;10.85;100.00
4398;BME280;2213;49.720;7.296;2023-04-19T00:03:33;98814.50;;;10.81;100.00
4398;BME280;2213;49.720;7.296;2023-04-19T00:06:04;98815.69;;;10.78;100.00
4398;BME280;2213;49.720;7.296;2023-04-19T00:08:36;98815.84;;;10.77;100.00
4398;BME280;2213;49.720;7.296;2023-04-19T00:11:06;98812.59;;;10.75;100.00
4398;BME280;2213;49.720;7.296;2023-04-19T00:13:35;98818.44;;;10.77;100.00
4398;BME280;2213;49.720;7.296;2023-04-19T00:16:08;98817.00;;;10.74;100.00
4398;BME280;2213;49.720;7.296;2023-04-19T00:18:39;98809.47;;;10.79;100.00
4398;BME280;2213;49.720;7.296;2023-04-19T00:21:09;98802.75;;;10.77;100.00
4398;BME280;2213;49.720;7.296;2023-04-19T00:23:39;98806.66;;;10.81;100.00
4398;BME280;2213;49.720;7.296;2023-04-19T00:26:08;98804.22;;;10.79;100.00
4398;BME280;2213;49.720;7.296;2023-04-19T00:28:38;98809.63;;;10.78;100.00
4398;BME280;2213;49.720;7.296;2023-04-19T00:31:08;98803.91;;;10.74;100.00
4398;BME280;2213;49.720;7.296;2023-04-19T00:33:40;98813.56;;;10.74;100.00
4398;BME280;2213;49.720;7.296;2023-04-19T00:36:11;98804.72;;;10.75;100.00
4398;BME280;2213;49.720;7.296;2023-04-19T00:38:40;98810.13;;;10.73;100.00
4398;BME280;2213;49.720;7.296;2023-04-19T00:41:10;98798.06;;;10.72;100.00
4398;BME280;2213;49.720;7.296;2023-04-19T00:43:40;98789.38;;;10.72;100.00
4398;BME280;2213;49.720;7.296;2023-04-19T00:46:09;98799.84;;;10.72;100.00
4398;BME280;2213;49.720;7.296;2023-04-19T00:48:41;98803.44;;;10.71;100.00
4398;BME280;2213;49.720;7.296;2023-04-19T00:51:12;98797.09;;;10.65;100.00
4398;BME280;2213;49.720;7.296;2023-04-19T00:53:42;98791.53;;;10.68;100.00
4398;BME280;2213;49.720;7.296;2023-04-19T00:56:14;98796.75;;;10.68;100.00
4398;BME280;2213;49.720;7.296;2023-04-19T00:58:45;98789.88;;;10.67;100.00
4398;BME280;2213;49.720;7.296;2023-04-19T01:01:14;98793.66;;;10.65;100.00
4398;BME280;2213;49.720;7.296;2023-04-19T01:03:47;98788.25;;;10.66;100.00
4398;BME280;2213;49.720;7.296;2023-04-19T01:06:17;98783.81;;;10.67;100.00
4398;BME280;2213;49.720;7.296;2023-04-19T01:08:48;98784.66;;;10.67;100.00
4398;BME280;2213;49.720;7.296;2023-04-19T01:11:18;98780.56;;;10.65;100.00
4398;BME280;2213;49.720;7.296;2023-04-19T01:13:48;98782.53;;;10.63;100.00
4398;BME280;2213;49.720;7.296;2023-04-19T01:16:18;98783.22;;;10.56;100.00
4398;BME280;2213;49.720;7.296;2023-04-19T01:18:50;98782.88;;;10.59;100.00
4398;BME280;2213;49.720;7.296;2023-04-19T01:21:19;98774.88;;;10.61;100.00
4398;BME280;2213;49.720;7.296;2023-04-19T01:23:52;98772.72;;;10.65;100.00
4398;BME280;2213;49.720;7.296;2023-04-19T01:26:22;98774.06;;;10.60;100.00
4398;BME280;2213;49.720;7.296;2023-04-19T01:28:52;98772.41;;;10.59;100.00
4398;BME280;2213;49.720;7.296;2023-04-19T01:31:22;98768.19;;;10.58;100.00
4398;BME280;2213;49.720;7.296;2023-04-19T01:33:51;98768.81;;;10.60;100.00
4398;BME280;2213;49.720;7.296;2023-04-19T01:36:20;98768.81;;;10.60;100.00
4398;BME280;2213;49.720;7.296;2023-04-19T01:38:51;98763.59;;;10.60;100.00
4398;BME280;2213;49.720;7.296;2023-04-19T01:41:22;98767.19;;;10.59;100.00
4398;BME280;2213;49.720;7.296;2023-04-19T01:43:54;98764.75;;;10.58;100.00
4398;BME280;2213;49.720;7.296;2023-04-19T01:46:24;98757.38;;;10.62;100.00
4398;BME280;2213;49.720;7.296;2023-04-19T01:48:53;98761.59;;;10.63;100.00
4398;BME280;2213;49.720;7.296;2023-04-19T01:51:24;98760.63;;;10.64;100.00
4398;BME280;2213;49.720;7.296;2023-04-19T01:53:55;98750.16;;;10.64;100.00
4398;BME280;2213;49.720;7.296;2023-04-19T01:56:25;98745.91;;;10.63;100.00
4398;BME280;2213;49.720;7.296;2023-04-19T01:58:56;98752.78;;;10.64;100.00
4398;BME280;2213;49.720;7.296;2023-04-19T02:01:26;98747.06;;;10.60;100.00
4398;BME280;2213;49.720;7.296;2023-04-19T02:03:56;98745.44;;;10.59;100.00
4398;BME280;2213;49.720;7.296;2023-04-19T02:06:27;98741.03;;;10.59;100.00
4398;BME280;2213;49.720;7.296;2023-04-19T02:08:57;98741.03;;;10.59;100.00
4398;BME280;2213;49.720;7.296;2023-04-19T02:11:28;98734.19;;;10.58;100.00
4398;BME280;2213;49.720;7.296;2023-04-19T02:13:57;98731.25;;;10.53;100.00
4398;BME280;2213;49.720;7.296;2023-04-19T02:16:29;98731.09;;;10.55;100.00
4398;BME280;2213;49.720;7.296;2023-04-19T02:19:02;98734.69;;;10.54;100.00
4398;BME280;2213;49.720;7.296;2023-04-19T02:21:32;98732.88;;;10.54;100.00
4398;BME280;2213;49.720;7.296;2023-04-19T02:24:04;98734.97;;;10.59;100.00
4398;BME280;2213;49.720;7.296;2023-04-19T02:26:34;98734.50;;;10.55;100.00
4398;BME280;2213;49.720;7.296;2023-04-19T02:29:05;98724.69;;;10.57;100.00
4398;BME280;2213;49.720;7.296;2023-04-19T02:31:35;98733.22;;;10.51;100.00
4398;BME280;2213;49.720;7.296;2023-04-19T02:34:06;98738.13;;;10.54;100.00
4398;BME280;2213;49.720;7.296;2023-04-19T02:36:37;98735.31;;;10.56;100.00
4398;BME280;2213;49.720;7.296;2023-04-19T02:39:07;98727.00;;;10.52;100.00
4398;BME280;2213;49.720;7.296;2023-04-19T02:41:38;98731.25;;;10.53;100.00
4398;BME280;2213;49.720;7.296;2023-04-19T02:44:08;98732.06;;;10.54;100.00
4398;BME280;2213;49.720;7.296;2023-04-19T02:46:38;98728.63;;;10.53;100.00
4398;BME280;2213;49.720;7.296;2023-04-19T02:49:08;98729.28;;;10.55;100.00
4398;BME280;2213;49.720;7.296;2023-04-19T02:51:39;98726.50;;;10.57;100.00
4398;BME280;2213;49.720;7.296;2023-04-19T02:54:11;98731.88;;;10.55;100.00
4398;BME280;2213;49.720;7.296;2023-04-19T02:56:42;98727.66;;;10.54;100.00
4398;BME280;2213;49.720;7.296;2023-04-19T02:59:12;98726.84;;;10.54;100.00
4398;BME280;2213;49.720;7.296;2023-04-19T03:01:41;98726.50;;;10.57;100.00
4398;BME280;2213;49.720;7.296;2023-04-19T03:04:10;98729.47;;;10.54;100.00
4398;BME280;2213;49.720;7.296;2023-04-19T03:06:42;98722.13;;;10.49;100.00
4398;BME280;2213;49.720;7.296;2023-04-19T03:09:13;98723.09;;;10.48;100.00
4398;BME280;2213;49.720;7.296;2023-04-19T03:11:43;98721.47;;;10.47;100.00
4398;BME280;2213;49.720;7.296;2023-04-19T03:14:14;98721.00;;;10.44;100.00
4398;BME280;2213;49.720;7.296;2023-04-19T03:16:44;98722.44;;;10.46;100.00
4398;BME280;2213;49.720;7.296;2023-04-19T03:19:14;98711.38;;;10.44;100.00
4398;BME280;2213;49.720;7.296;2023-04-19T03:21:44;98717.38;;;10.45;100.00
4398;BME280;2213;49.720;7.296;2023-04-19T03:24:18;98716.91;;;10.41;100.00
4398;BME280;2213;49.720;7.296;2023-04-19T03:26:49;98720.19;;;10.43;100.00
4398;BME280;2213;49.720;7.296;2023-04-19T03:29:20;98715.44;;;10.39;100.00
4398;BME280;2213;49.720;7.296;2023-04-19T03:31:51;98715.44;;;10.39;100.00
4398;BME280;2213;49.720;7.296;2023-04-19T03:34:21;98718.88;;;10.39;100.00
4398;BME280;2213;49.720;7.296;2023-04-19T03:36:51;98705.53;;;10.34;100.00
4398;BME280;2213;49.720;7.296;2023-04-19T03:39:21;98710.41;;;10.37;100.00
4398;BME280;2213;49.720;7.296;2023-04-19T03:41:51;98709.06;;;10.41;100.00
4398;BME280;2213;49.720;7.296;2023-04-19T03:44:21;98708.09;;;10.42;100.00
4398;BME280;2213;49.720;7.296;2023-04-19T03:46:51;98707.75;;;10.45;100.00
4398;BME280;2213;49.720;7.296;2023-04-19T03:49:22;98694.03;;;10.43;100.00
4398;BME280;2213;49.720;7.296;2023-04-19T03:51:53;98694.84;;;10.44;100.00
4398;BME280;2213;49.720;7.296;2023-04-19T03:54:26;98689.44;;;10.45;100.00
4398;BME280;2213;49.720;7.296;2023-04-19T03:56:56;98685.84;;;10.46;100.00
4398;BME280;2213;49.720;7.296;2023-04-19T03:59:27;98678.34;;;10.43;100.00
4398;BME280;2213;49.720;7.296;2023-04-19T04:01:58;98687.66;;;10.38;100.00
4398;BME280;2213;49.720;7.296;2023-04-19T04:04:28;98688.34;;;10.40;100.00
4398;BME280;2213;49.720;7.296;2023-04-19T04:06:58;98689.78;;;10.42;100.00
4398;BME280;2213;49.720;7.296;2023-04-19T04:09:30;98695.34;;;10.39;100.00
4398;BME280;2213;49.720;7.296;2023-04-19T04:12:00;98690.00;;;10.33;100.00
4398;BME280;2213;49.720;7.296;2023-04-19T04:14:31;98686.56;;;10.32;100.00
4398;BME280;2213;49.720;7.296;2023-04-19T04:17:01;98692.59;;;10.33;100.00
4398;BME280;2213;49.720;7.296;2023-04-19T04:19:31;98691.97;;;10.31;100.00
4398;BME280;2213;49.720;7.296;2023-04-19T04:22:02;98694.59;;;10.31;100.00
4398;BME280;2213;49.720;7.296;2023-04-19T04:24:39;98695.06;;;10.34;100.00
4398;BME280;2213;49.720;7.296;2023-04-19T04:27:09;98690.63;;;10.35;100.00
4398;BME280;2213;49.720;7.296;2023-04-19T04:29:39;98685.41;;;10.35;100.00
4398;BME280;2213;49.720;7.296;2023-04-19T04:32:11;98688.34;;;10.40;100.00
4398;BME280;2213;49.720;7.296;2023-04-19T04:34:41;98692.75;;;10.39;100.00
4398;BME280;2213;49.720;7.296;2023-04-19T04:37:11;98699.59;;;10.40;100.00
4398;BME280;2213;49.720;7.296;2023-04-19T04:39:42;98703.19;;;10.39;100.00
4398;BME280;2213;49.720;7.296;2023-04-19T04:42:12;98699.13;;;10.37;100.00
4398;BME280;2213;49.720;7.296;2023-04-19T04:44:43;98692.09;;;10.37;100.00
4398;BME280;2213;49.720;7.296;2023-04-19T04:47:14;98698.47;;;10.35;100.00
4398;BME280;2213;49.720;7.296;2023-04-19T04:49:43;98693.72;;;10.38;100.00
4398;BME280;2213;49.720;7.296;2023-04-19T04:52:14;98694.53;;;10.39;100.00
4398;BME280;2213;49.720;7.296;2023-04-19T04:54:45;98696.00;;;10.41;100.00
4398;BME280;2213;49.720;7.296;2023-04-19T04:57:14;98695.84;;;10.43;100.00
4398;BME280;2213;49.720;7.296;2023-04-19T04:59:44;98700.91;;;10.44;100.00
4398;BME280;2213;49.720;7.296;2023-04-19T05:02:14;98702.69;;;10.44;100.00
4398;BME280;2213;49.720;7.296;2023-04-19T05:04:45;98699.59;;;10.40;100.00
4398;BME280;2213;49.720;7.296;2023-04-19T05:07:15;98693.72;;;10.38;100.00
4398;BME280;2213;49.720;7.296;2023-04-19T05:09:45;98693.56;;;10.40;100.00
4398;BME280;2213;49.720;7.296;2023-04-19T05:12:14;98700.25;;;10.42;100.00
4398;BME280;2213;49.720;7.296;2023-04-19T05:14:45;98697.28;;;10.45;100.00
4398;BME280;2213;49.720;7.296;2023-04-19T05:17:16;98699.06;;;10.45;100.00
4398;BME280;2213;49.720;7.296;2023-04-19T05:19:46;98706.13;;;10.44;100.00
4398;BME280;2213;49.720;7.296;2023-04-19T05:22:16;98705.78;;;10.47;100.00
4398;BME280;2213;49.720;7.296;2023-04-19T05:24:46;98703.53;;;10.44;100.00
4398;BME280;2213;49.720;7.296;2023-04-19T05:27:16;98711.38;;;10.44;100.00
4398;BME280;2213;49.720;7.296;2023-04-19T05:29:44;98709.38;;;10.46;100.00
4398;BME280;2213;49.720;7.296;2023-04-19T05:32:14;98701.03;;;10.51;100.00
4398;BME280;2213;49.720;7.296;2023-04-19T05:34:45;98708.88;;;10.51;100.00
4398;BME280;2213;49.720;7.296;2023-04-19T05:37:14;98699.06;;;10.45;100.00
4398;BME280;2213;49.720;7.296;2023-04-19T05:39:45;98704.16;;;10.46;100.00
4398;BME280;2213;49.720;7.296;2023-04-19T05:42:15;98703.00;;;10.49;100.00
4398;BME280;2213;49.720;7.296;2023-04-19T05:44:44;98704.78;;;10.48;100.00
4398;BME280;2213;49.720;7.296;2023-04-19T05:47:14;98699.91;;;10.45;100.00
4398;BME280;2213;49.720;7.296;2023-04-19T05:49:44;98711.03;;;10.47;100.00
4398;BME280;2213;49.720;7.296;2023-04-19T05:52:14;98705.78;;;10.47;100.00
4398;BME280;2213;49.720;7.296;2023-04-19T05:54:43;98708.56;;;10.46;100.00
4398;BME280;2213;49.720;7.296;2023-04-19T05:57:14;98702.34;;;10.47;100.00
4398;BME280;2213;49.720;7.296;2023-04-19T05:59:45;98703.00;;;10.49;100.00
4398;BME280;2213;49.720;7.296;2023-04-19T06:02:14;98701.84;;;10.51;100.00
4398;BME280;2213;49.720;7.296;2023-04-19T06:04:45;98705.25;;;10.52;100.00
4398;BME280;2213;49.720;7.296;2023-04-19T06:07:15;98714.41;;;10.56;100.00
4398;BME280;2213;49.720;7.296;2023-04-19T06:09:58;98704.75;;;10.56;100.00
4398;BME280;2213;49.720;7.296;2023-04-19T06:12:28;98710.81;;;10.57;100.00
4398;BME280;2213;49.720;7.296;2023-04-19T06:14:57;98711.78;;;10.56;100.00
4398;BME280;2213;49.720;7.296;2023-04-19T06:17:27;98707.56;;;10.55;100.00
4398;BME280;2213;49.720;7.296;2023-04-19T06:19:57;98713.25;;;10.58;100.00
4398;BME280;2213;49.720;7.296;2023-04-19T06:22:27;98718.16;;;10.62;100.00
4398;BME280;2213;49.720;7.296;2023-04-19T06:24:55;98715.34;;;10.63;100.00
4398;BME280;2213;49.720;7.296;2023-04-19T06:27:27;98720.25;;;10.66;100.00
4398;BME280;2213;49.720;7.296;2023-04-19T06:29:56;98714.19;;;10.66;100.00
4398;BME280;2213;49.720;7.296;2023-04-19T06:32:29;98711.41;;;10.67;100.00
4398;BME280;2213;49.720;7.296;2023-04-19T06:34:59;98712.03;;;10.69;100.00
4398;BME280;2213;49.720;7.296;2023-04-19T06:37:29;98717.13;;;10.71;100.00
4398;BME280;2213;49.720;7.296;2023-04-19T06:39:59;98713.53;;;10.72;100.00
4398;BME280;2213;49.720;7.296;2023-04-19T06:42:31;98707.13;;;10.74;100.00
4398;BME280;2213;49.720;7.296;2023-04-19T06:45:01;98712.34;;;10.74;100.00
4398;BME280;2213;49.720;7.296;2023-04-19T06:47:31;98716.97;;;10.72;100.00
4398;BME280;2213;49.720;7.296;2023-04-19T06:50:02;98709.59;;;10.76;100.00
4398;BME280;2213;49.720;7.296;2023-04-19T06:52:32;98712.34;;;10.74;100.00
4398;BME280;2213;49.720;7.296;2023-04-19T06:55:01;98715.59;;;10.76;100.00
4398;BME280;2213;49.720;7.296;2023-04-19T06:57:32;98709.59;;;10.76;100.00
4398;BME280;2213;49.720;7.296;2023-04-19T07:00:02;98715.28;;;10.79;100.00
4398;BME280;2213;49.720;7.296;2023-04-19T07:02:32;98702.03;;;10.81;100.00
4398;BME280;2213;49.720;7.296;2023-04-19T07:05:01;98704.28;;;10.84;100.00
4398;BME280;2213;49.720;7.296;2023-04-19T07:07:31;98703.78;;;10.88;100.00
4398;BME280;2213;49.720;7.296;2023-04-19T07:10:02;98704.25;;;10.92;100.00
4398;BME280;2213;49.720;7.296;2023-04-19T07:12:34;98704.25;;;10.92;100.00
4398;BME280;2213;49.720;7.296;2023-04-19T07:15:04;98700.97;;;10.90;100.00
4398;BME280;2213;49.720;7.296;2023-04-19T07:17:35;98706.50;;;10.95;100.00
4398;BME280;2213;49.720;7.296;2023-04-19T07:20:08;98694.72;;;10.99;100.00
4398;BME280;2213;49.720;7.296;2023-04-19T07:22:39;98696.38;;;11.00;100.00
4398;BME280;2213;49.720;7.296;2023-04-19T07:25:09;98687.16;;;11.04;100.00
4398;BME280;2213;49.720;7.296;2023-04-19T07:27:41;98688.97;;;11.03;100.00
4398;BME280;2213;49.720;7.296;2023-04-19T07:30:11;98691.06;;;11.08;100.00
4398;BME280;2213;49.720;7.296;2023-04-19T07:32:41;98685.47;;;11.11;100.00
4398;BME280;2213;49.720;7.296;2023-04-19T07:35:12;98687.91;;;11.13;100.00
4398;BME280;2213;49.720;7.296;2023-04-19T07:37:42;98690.19;;;11.16;100.00
4398;BME280;2213;49.720;7.296;2023-04-19T07:40:12;98694.25;;;11.18;100.00
4398;BME280;2213;49.720;7.296;2023-04-19T07:42:44;98689.00;;;11.18;100.00
4398;BME280;2213;49.720;7.296;2023-04-19T07:45:14;98689.47;;;11.22;100.00
4398;BME280;2213;49.720;7.296;2023-04-19T07:47:44;98678.03;;;11.23;100.00
4398;BME280;2213;49.720;7.296;2023-04-19T07:50:13;98684.53;;;11.27;100.00
4398;BME280;2213;49.720;7.296;2023-04-19T07:52:44;98678.59;;;11.33;100.00
4398;BME280;2213;49.720;7.296;2023-04-19T07:55:13;98677.09;;;11.38;100.00
4398;BME280;2213;49.720;7.296;2023-04-19T07:57:44;98682.97;;;11.40;100.00
4398;BME280;2213;49.720;7.296;2023-04-19T08:00:16;98674.59;;;11.45;100.00
4398;BME280;2213;49.720;7.296;2023-04-19T08:02:49;98671.06;;;11.52;100.00
4398;BME280;2213;49.720;7.296;2023-04-19T08:05:20;98676.28;;;11.52;100.00
4398;BME280;2213;49.720;7.296;2023-04-19T08:07:51;98675.41;;;11.60;100.00
4398;BME280;2213;49.720;7.296;2023-04-19T08:10:20;98671.28;;;11.66;100.00
4398;BME280;2213;49.720;7.296;2023-04-19T08:12:51;98665.03;;;11.67;100.00
4398;BME280;2213;49.720;7.296;2023-04-19T08:15:33;98662.09;;;11.70;100.00
4398;BME280;2213;49.720;7.296;2023-04-19T08:18:06;98663.34;;;11.74;100.00
4398;BME280;2213;49.720;7.296;2023-04-19T08:20:37;98672.50;;;11.78;100.00
4398;BME280;2213;49.720;7.296;2023-04-19T08:23:09;98663.28;;;11.82;100.00
4398;BME280;2213;49.720;7.296;2023-04-19T08:25:51;98664.19;;;11.89;100.00
4398;BME280;2213;49.720;7.296;2023-04-19T08:28:22;98662.19;;;11.91;100.00
4398;BME280;2213;49.720;7.296;2023-04-19T08:30:54;98664.81;;;11.91;100.00
4398;BME280;2213;49.720;7.296;2023-04-19T08:33:23;98663.31;;;11.96;100.00
4398;BME280;2213;49.720;7.296;2023-04-19T08:35:54;98664.56;;;12.00;100.00
4398;BME280;2213;49.720;7.296;2023-04-19T08:38:24;98666.63;;;12.05;100.00
4398;BME280;2213;49.720;7.296;2023-04-19T08:40:54;98665.03;;;12.04;100.00
4398;BME280;2213;49.720;7.296;2023-04-19T08:43:28;98654.19;;;12.07;100.00
4398;BME280;2213;49.720;7.296;2023-04-19T08:46:01;98655.91;;;12.15;100.00
4398;BME280;2213;49.720;7.296;2023-04-19T08:48:34;98653.06;;;12.16;100.00
4398;BME280;2213;49.720;7.296;2023-04-19T08:51:05;98646.31;;;12.22;100.00
4398;BME280;2213;49.720;7.296;2023-04-19T08:53:34;98652.34;;;12.22;100.00
4398;BME280;2213;49.720;7.296;2023-04-19T08:56:07;98652.78;;;12.26;100.00
4398;BME280;2213;49.720;7.296;2023-04-19T08:58:58;98636.34;;;12.32;100.00
4398;BME280;2213;49.720;7.296;2023-04-19T09:01:45;98641.66;;;12.38;100.00
4398;BME280;2213;49.720;7.296;2023-04-19T09:04:15;98637.03;;;12.40;100.00
4398;BME280;2213;49.720;7.296;2023-04-19T09:07:03;98638.13;;;12.46;100.00
4398;BME280;2213;49.720;7.296;2023-04-19T09:09:35;98632.31;;;12.50;100.00
4398;BME280;2213;49.720;7.296;2023-04-19T09:12:25;98637.84;;;12.55;100.00
4398;BME280;2213;49.720;7.296;2023-04-19T09:14:57;98627.78;;;12.59;100.00
4398;BME280;2213;49.720;7.296;2023-04-19T09:17:29;98628.22;;;12.63;100.00
4398;BME280;2213;49.720;7.296;2023-04-19T09:19:58;98629.66;;;12.65;100.00
4398;BME280;2213;49.720;7.296;2023-04-19T09:22:28;98626.03;;;12.66;100.00
4398;BME280;2213;49.720;7.296;2023-04-19T09:24:58;98626.28;;;12.71;100.00
4398;BME280;2213;49.720;7.296;2023-04-19T09:27:47;98621.47;;;12.75;100.00
4398;BME280;2213;49.720;7.296;2023-04-19T09:30:24;98612.00;;;12.74;100.00
4398;BME280;2213;49.720;7.296;2023-04-19T09:33:00;98610.00;;;12.76;100.00
4398;BME280;2213;49.720;7.296;2023-04-19T09:35:40;98608.41;;;12.81;100.00
4398;BME280;2213;49.720;7.296;2023-04-19T09:38:10;98600.97;;;12.85;100.00
4398;BME280;2213;49.720;7.296;2023-04-19T09:40:42;98601.25;;;12.90;100.00
4398;BME280;2213;49.720;7.296;2023-04-19T09:43:11;98597.25;;;12.94;100.00
4398;BME280;2213;49.720;7.296;2023-04-19T09:46:03;98596.31;;;13.01;100.00
4398;BME280;2213;49.720;7.296;2023-04-19T09:48:33;98587.84;;;13.06;100.00
4398;BME280;2213;49.720;7.296;2023-04-19T09:51:04;98584.69;;;13.10;100.00
4398;BME280;2213;49.720;7.296;2023-04-19T09:53:42;98584.88;;;13.09;100.00
4398;BME280;2213;49.720;7.296;2023-04-19T09:56:12;98578.63;;;13.10;100.00
4398;BME280;2213;49.720;7.296;2023-04-19T09:58:43;98580.09;;;13.19;100.00
4398;BME280;2213;49.720;7.296;2023-04-19T10:01:23;98575.53;;;13.28;100.00
4398;BME280;2213;49.720;7.296;2023-04-19T10:03:54;98575.34;;;13.29;100.00
4398;BME280;2213;49.720;7.296;2023-04-19T10:06:42;98578.63;;;13.38;100.00
4398;BME280;2213;49.720;7.296;2023-04-19T10:09:34;98570.38;;;13.41;100.00
4398;BME280;2213;49.720;7.296;2023-04-19T10:12:20;98572.03;;;13.48;100.00
4398;BME280;2213;49.720;7.296;2023-04-19T10:14:55;98571.66;;;13.51;100.00
4398;BME280;2213;49.720;7.296;2023-04-19T10:17:27;98574.91;;;13.53;100.00
4398;BME280;2213;49.720;7.296;2023-04-19T10:20:04;98565.19;;;13.54;100.00
4398;BME280;2213;49.720;7.296;2023-04-19T10:22:36;98572.28;;;13.53;100.00
4398;BME280;2213;49.720;7.296;2023-04-19T10:25:11;98574.00;;;13.40;100.00
4398;BME280;2213;49.720;7.296;2023-04-19T10:27:42;98568.69;;;13.33;100.00
4398;BME280;2213;49.720;7.296;2023-04-19T10:30:18;98572.34;;;13.32;100.00
4398;BME280;2213;49.720;7.296;2023-04-19T10:32:54;98574.66;;;13.21;100.00
4398;BME280;2213;49.720;7.296;2023-04-19T10:35:27;98576.25;;;13.15;100.00
4398;BME280;2213;49.720;7.296;2023-04-19T10:38:07;98576.44;;;13.14;100.00
4398;BME280;2213;49.720;7.296;2023-04-19T10:40:58;98577.00;;;13.09;100.00
4398;BME280;2213;49.720;7.296;2023-04-19T10:43:30;98575.38;;;13.08;100.00
4398;BME280;2213;49.720;7.296;2023-04-19T10:46:06;98575.53;;;13.06;100.00
4398;BME280;2213;49.720;7.296;2023-04-19T10:48:48;98577.72;;;13.03;100.00
4398;BME280;2213;49.720;7.296;2023-04-19T10:51:25;98569.19;;;12.94;100.00
4398;BME280;2213;49.720;7.296;2023-04-19T10:53:57;98567.72;;;12.92;100.00
4398;BME280;2213;49.720;7.296;2023-04-19T10:56:59;98562.69;;;12.90;100.00
4398;BME280;2213;49.720;7.296;2023-04-19T10:59:30;98561.59;;;12.85;100.00
4398;BME280;2213;49.720;7.296;2023-04-19T11:02:00;98549.75;;;12.89;100.00
4398;BME280;2213;49.720;7.296;2023-04-19T11:04:59;98553.78;;;12.91;100.00
4398;BME280;2213;49.720;7.296;2023-04-19T11:07:36;98549.75;;;12.89;100.00
4398;BME280;2213;49.720;7.296;2023-04-19T11:10:09;98543.28;;;12.91;100.00
4398;BME280;2213;49.720;7.296;2023-04-19T11:12:44;98535.66;;;12.96;100.00
4398;BME280;2213;49.720;7.296;2023-04-19T11:15:14;98528.84;;;13.02;100.00
4398;BME280;2213;49.720;7.296;2023-04-19T11:17:48;98531.72;;;13.07;100.00
4398;BME280;2213;49.720;7.296;2023-04-19T11:20:37;98529.47;;;13.04;100.00
4398;BME280;2213;49.720;7.296;2023-04-19T11:23:15;98533.72;;;13.05;100.00
4398;BME280;2213;49.720;7.296;2023-04-19T11:25:45;98530.03;;;12.99;100.00
4398;BME280;2213;49.720;7.296;2023-04-19T11:28:15;98532.88;;;12.98;100.00
4398;BME280;2213;49.720;7.296;2023-04-19T11:30:45;98528.78;;;12.95;100.00
4398;BME280;2213;49.720;7.296;2023-04-19T11:33:18;98523.16;;;12.98;100.00
4398;BME280;2213;49.720;7.296;2023-04-19T11:35:53;98517.97;;;13.05;100.00
4398;BME280;2213;49.720;7.296;2023-04-19T11:38:22;98520.22;;;13.08;100.00
4398;BME280;2213;49.720;7.296;2023-04-19T11:40:58;98512.00;;;13.11;100.00
4398;BME280;2213;49.720;7.296;2023-04-19T11:43:32;98508.84;;;13.22;100.00
4398;BME280;2213;49.720;7.296;2023-04-19T11:46:04;98510.69;;;13.28;100.00
4398;BME280;2213;49.720;7.296;2023-04-19T11:48:35;98508.91;;;13.35;100.00
4398;BME280;2213;49.720;7.296;2023-04-19T11:51:06;98501.66;;;13.44;100.00
4398;BME280;2213;49.720;7.296;2023-04-19T11:53:38;98501.28;;;13.47;100.00
4398;BME280;2213;49.720;7.296;2023-04-19T11:56:08;98493.25;;;13.55;100.00
4398;BME280;2213;49.720;7.296;2023-04-19T11:58:41;98497.28;;;13.57;100.00
4398;BME280;2213;49.720;7.296;2023-04-19T12:01:13;98486.44;;;13.60;100.00
4398;BME280;2213;49.720;7.296;2023-04-19T12:03:45;98486.03;;;13.64;100.00
4398;BME280;2213;49.720;7.296;2023-04-19T12:06:21;98490.50;;;13.70;100.00
4398;BME280;2213;49.720;7.296;2023-04-19T12:08:51;98491.50;;;13.69;98.16
4398;BME280;2213;49.720;7.296;2023-04-19T12:11:23;98475.56;;;13.77;95.21
4398;BME280;2213;49.720;7.296;2023-04-19T12:14:07;98467.47;;;13.78;94.01
4398;BME280;2213;49.720;7.296;2023-04-19T12:16:37;98461.22;;;13.79;92.37
4398;BME280;2213;49.720;7.296;2023-04-19T12:19:10;98470.31;;;13.83;92.07
4398;BME280;2213;49.720;7.296;2023-04-19T12:21:46;98454.56;;;13.83;89.76
4398;BME280;2213;49.720;7.296;2023-04-19T12:24:15;98459.81;;;13.83;88.75
4398;BME280;2213;49.720;7.296;2023-04-19T12:26:53;98464.66;;;13.80;85.21
4398;BME280;2213;49.720;7.296;2023-04-19T12:29:23;98445.69;;;13.91;85.30
4398;BME280;2213;49.720;7.296;2023-04-19T12:31:55;98445.47;;;13.92;84.79
4398;BME280;2213;49.720;7.296;2023-04-19T12:34:25;98446.13;;;14.01;84.82
4398;BME280;2213;49.720;7.296;2023-04-19T12:36:56;98448.34;;;14.04;83.46
4398;BME280;2213;49.720;7.296;2023-04-19T12:39:25;98446.13;;;14.01;77.72
4398;BME280;2213;49.720;7.296;2023-04-19T12:41:55;98428.31;;;14.03;76.95
4398;BME280;2213;49.720;7.296;2023-04-19T12:44:25;98429.75;;;14.12;77.44
4398;BME280;2213;49.720;7.296;2023-04-19T12:46:55;98434.22;;;14.18;77.42
4398;BME280;2213;49.720;7.296;2023-04-19T12:49:25;98427.13;;;14.25;75.98
4398;BME280;2213;49.720;7.296;2023-04-19T12:51:57;98420.28;;;14.37;76.45
4398;BME280;2213;49.720;7.296;2023-04-19T12:54:26;98410.56;;;14.44;76.05
4398;BME280;2213;49.720;7.296;2023-04-19T12:56:56;98407.34;;;14.49;73.88
4398;BME280;2213;49.720;7.296;2023-04-19T12:59:27;98402.06;;;14.55;73.46
4398;BME280;2213;49.720;7.296;2023-04-19T13:01:57;98403.50;;;14.65;73.25
4398;BME280;2213;49.720;7.296;2023-04-19T13:04:27;98404.50;;;14.70;70.27
4398;BME280;2213;49.720;7.296;2023-04-19T13:06:58;98384.66;;;14.68;65.30
4398;BME280;2213;49.720;7.296;2023-04-19T13:09:27;98385.47;;;14.61;64.55
4398;BME280;2213;49.720;7.296;2023-04-19T13:11:56;98381.41;;;14.66;65.74
4398;BME280;2213;49.720;7.296;2023-04-19T13:14:27;98381.81;;;14.69;65.31
4398;BME280;2213;49.720;7.296;2023-04-19T13:16:56;98374.53;;;14.78;66.17
4398;BME280;2213;49.720;7.296;2023-04-19T13:19:25;98379.38;;;14.74;64.02
4398;BME280;2213;49.720;7.296;2023-04-19T13:21:56;98370.47;;;14.82;63.59
4398;BME280;2213;49.720;7.296;2023-04-19T13:24:27;98377.16;;;14.78;60.12
4398;BME280;2213;49.720;7.296;2023-04-19T13:26:56;98368.41;;;14.90;60.52
4398;BME280;2213;49.720;7.296;2023-04-19T13:29:25;98374.88;;;14.94;59.31
4398;BME280;2213;49.720;7.296;2023-04-19T13:31:55;98382.78;;;14.94;57.00
4398;BME280;2213;49.720;7.296;2023-04-19T13:34:25;98368.00;;;14.93;56.72
4398;BME280;2213;49.720;7.296;2023-04-19T13:36:53;98367.97;;;15.00;56.79